sensor_id;sensor_type;location;lat;lon;timestamp;pressure;altitude;pressure_sealevel;temperature;humidity
23996;BME280;12207;50.076;8.848;2022-08-19T00:01:38;99676.31;;;20.67;100.00
23996;BME280;12207;50.076;8.848;2022-08-19T00:04:06;99684.97;;;20.69;100.00
23996;BME280;12207;50.076;8.848;2022-08-19T00:06:33;99687.56;;;20.69;100.00
23996;BME280;12207;50.076;8.848;2022-08-19T00:09:02;99681.50;;;20.70;99.98
23996;BME280;12207;50.076;8.848;2022-08-19T00:11:29;99683.22;;;20.69;100.00
23996;BME280;12207;50.076;8.848;2022-08-19T00:13:55;99678.91;;;20.68;100.00
23996;BME280;12207;50.076;8.848;2022-08-19T00:16:23;99677.19;;;20.64;100.00
23996;BME280;12207;50.076;8.848;2022-08-19T00:18:50;99670.25;;;20.62;100.00
23996;BME280;12207;50.076;8.848;2022-08-19T00:21:16;99677.19;;;20.66;100.00
23996;BME280;12207;50.076;8.848;2022-08-19T00:23:44;99668.53;;;20.62;100.00
23996;BME280;12207;50.076;8.848;2022-08-19T00:26:11;99665.09;;;20.68;100.00
23996;BME280;12207;50.076;8.848;2022-08-19T00:28:37;99659.03;;;20.64;100.00
23996;BME280;12207;50.076;8.848;2022-08-19T00:31:04;99665.94;;;20.61;100.00
23996;BME280;12207;50.076;8.848;2022-08-19T00:33:31;99657.31;;;20.59;100.00
23996;BME280;12207;50.076;8.848;2022-08-19T00:35:59;99652.13;;;20.71;100.00
23996;BME280;12207;50.076;8.848;2022-08-19T00:38:25;99643.47;;;20.63;100.00
23996;BME280;12207;50.076;8.848;2022-08-19T00:40:52;99645.19;;;20.58;100.00
23996;BME280;12207;50.076;8.848;2022-08-19T00:43:20;99640.88;;;20.66;100.00
23996;BME280;12207;50.076;8.848;2022-08-19T00:45:47;99644.34;;;20.59;99.62
23996;BME280;12207;50.076;8.848;2022-08-19T00:48:16;99649.53;;;20.62;100.00
23996;BME280;12207;50.076;8.848;2022-08-19T00:50:43;99639.13;;;20.60;100.00
23996;BME280;12207;50.076;8.848;2022-08-19T00:53:10;99652.91;;;20.52;100.00
23996;BME280;12207;50.076;8.848;2022-08-19T00:55:38;99644.31;;;20.60;99.80
23996;BME280;12207;50.076;8.848;2022-08-19T00:58:10;99651.25;;;20.64;99.49
23996;BME280;12207;50.076;8.848;2022-08-19T01:00:38;99641.72;;;20.66;98.70
23996;BME280;12207;50.076;8.848;2022-08-19T01:03:05;99634.81;;;20.67;98.46
23996;BME280;12207;50.076;8.848;2022-08-19T01:05:32;99627.91;;;20.69;99.31
23996;BME280;12207;50.076;8.848;2022-08-19T01:07:59;99627.91;;;20.72;99.36
23996;BME280;12207;50.076;8.848;2022-08-19T01:10:28;99617.53;;;20.72;99.47
23996;BME280;12207;50.076;8.848;2022-08-19T01:12:56;99619.28;;;20.68;98.64
23996;BME280;12207;50.076;8.848;2022-08-19T01:15:26;99625.34;;;20.67;98.55
23996;BME280;12207;50.076;8.848;2022-08-19T01:17:54;99632.25;;;20.65;98.73
23996;BME280;12207;50.076;8.848;2022-08-19T01:20:21;99633.09;;;20.69;98.95
23996;BME280;12207;50.076;8.848;2022-08-19T01:22:50;99636.56;;;20.74;98.15
23996;BME280;12207;50.076;8.848;2022-08-19T01:25:18;99627.03;;;20.73;97.80
23996;BME280;12207;50.076;8.848;2022-08-19T01:27:46;99620.13;;;20.78;97.16
23996;BME280;12207;50.076;8.848;2022-08-19T01:30:15;99628.78;;;20.79;98.06
23996;BME280;12207;50.076;8.848;2022-08-19T01:32:42;99619.31;;;20.82;100.00
23996;BME280;12207;50.076;8.848;2022-08-19T01:35:09;99621.00;;;20.73;97.84
23996;BME280;12207;50.076;8.848;2022-08-19T01:37:48;99619.25;;;20.67;99.01
23996;BME280;12207;50.076;8.848;2022-08-19T01:40:16;99617.53;;;20.75;98.39
23996;BME280;12207;50.076;8.848;2022-08-19T01:42:42;99621.00;;;20.76;100.00
23996;BME280;12207;50.076;8.848;2022-08-19T01:45:09;99622.72;;;20.69;98.88
23996;BME280;12207;50.076;8.848;2022-08-19T01:47:36;99615.81;;;20.73;98.10
23996;BME280;12207;50.076;8.848;2022-08-19T01:50:04;99619.28;;;20.71;99.40
23996;BME280;12207;50.076;8.848;2022-08-19T01:52:30;99623.59;;;20.68;98.93
23996;BME280;12207;50.076;8.848;2022-08-19T01:54:57;99628.78;;;20.71;99.12
23996;BME280;12207;50.076;8.848;2022-08-19T01:57:24;99626.19;;;20.68;98.92
23996;BME280;12207;50.076;8.848;2022-08-19T01:59:50;99617.53;;;20.75;98.54
23996;BME280;12207;50.076;8.848;2022-08-19T02:02:17;99618.41;;;20.76;98.67
23996;BME280;12207;50.076;8.848;2022-08-19T02:04:43;99617.53;;;20.72;98.44
23996;BME280;12207;50.076;8.848;2022-08-19T02:07:10;99624.44;;;20.70;99.50
23996;BME280;12207;50.076;8.848;2022-08-19T02:09:36;99617.53;;;20.63;98.76
23996;BME280;12207;50.076;8.848;2022-08-19T02:12:03;99627.91;;;20.72;97.96
23996;BME280;12207;50.076;8.848;2022-08-19T02:14:30;99631.38;;;20.68;98.25
23996;BME280;12207;50.076;8.848;2022-08-19T02:16:56;99639.16;;;20.69;98.42
23996;BME280;12207;50.076;8.848;2022-08-19T02:19:23;99647.78;;;20.68;98.18
23996;BME280;12207;50.076;8.848;2022-08-19T02:21:49;99660.75;;;20.67;98.62
23996;BME280;12207;50.076;8.848;2022-08-19T02:24:16;99665.94;;;20.67;98.52
23996;BME280;12207;50.076;8.848;2022-08-19T02:26:42;99659.91;;;20.79;97.60
23996;BME280;12207;50.076;8.848;2022-08-19T02:29:09;99661.66;;;20.70;98.53
23996;BME280;12207;50.076;8.848;2022-08-19T02:31:35;99654.69;;;20.63;98.97
23996;BME280;12207;50.076;8.848;2022-08-19T02:34:02;99651.25;;;20.66;99.40
23996;BME280;12207;50.076;8.848;2022-08-19T02:36:28;99651.25;;;20.66;99.32
23996;BME280;12207;50.076;8.848;2022-08-19T02:38:56;99656.44;;;20.66;99.29
23996;BME280;12207;50.076;8.848;2022-08-19T02:41:26;99653.84;;;20.66;99.12
23996;BME280;12207;50.076;8.848;2022-08-19T02:43:54;99654.72;;;20.62;100.00
23996;BME280;12207;50.076;8.848;2022-08-19T02:46:22;99648.66;;;20.60;100.00
23996;BME280;12207;50.076;8.848;2022-08-19T02:48:52;99643.47;;;20.61;100.00
23996;BME280;12207;50.076;8.848;2022-08-19T02:51:29;99645.19;;;20.53;100.00
23996;BME280;12207;50.076;8.848;2022-08-19T02:53:56;99653.78;;;20.51;100.00
23996;BME280;12207;50.076;8.848;2022-08-19T02:56:23;99655.50;;;20.47;100.00
23996;BME280;12207;50.076;8.848;2022-08-19T02:58:54;99658.09;;;20.44;100.00
23996;BME280;12207;50.076;8.848;2022-08-19T03:01:28;99659.78;;;20.43;100.00
23996;BME280;12207;50.076;8.848;2022-08-19T03:03:55;99654.59;;;20.37;100.00
23996;BME280;12207;50.076;8.848;2022-08-19T03:06:22;99648.56;;;20.38;100.00
23996;BME280;12207;50.076;8.848;2022-08-19T03:08:49;99652.00;;;20.33;100.00
23996;BME280;12207;50.076;8.848;2022-08-19T03:11:17;99652.88;;;20.30;100.00
23996;BME280;12207;50.076;8.848;2022-08-19T03:13:44;99663.25;;;20.35;100.00
23996;BME280;12207;50.076;8.848;2022-08-19T03:16:11;99653.75;;;20.38;100.00
23996;BME280;12207;50.076;8.848;2022-08-19T03:18:38;99661.50;;;20.37;100.00
23996;BME280;12207;50.076;8.848;2022-08-19T03:21:05;99660.66;;;20.42;100.00
23996;BME280;12207;50.076;8.848;2022-08-19T03:23:31;99657.22;;;20.39;100.00
23996;BME280;12207;50.076;8.848;2022-08-19T03:25:59;99654.59;;;20.37;100.00
23996;BME280;12207;50.076;8.848;2022-08-19T03:28:25;99656.34;;;20.38;100.00
23996;BME280;12207;50.076;8.848;2022-08-19T03:30:57;99661.53;;;20.40;100.00
23996;BME280;12207;50.076;8.848;2022-08-19T03:33:25;99659.78;;;20.40;100.00
23996;BME280;12207;50.076;8.848;2022-08-19T03:38:27;99655.44;;;20.27;100.00
23996;BME280;12207;50.076;8.848;2022-08-19T03:40:54;99657.16;;;20.25;100.00
23996;BME280;12207;50.076;8.848;2022-08-19T03:43:20;99654.56;;;20.23;100.00
23996;BME280;12207;50.076;8.848;2022-08-19T03:45:47;99656.28;;;20.17;100.00
23996;BME280;12207;50.076;8.848;2022-08-19T03:48:15;99651.06;;;20.12;100.00
23996;BME280;12207;50.076;8.848;2022-08-19T03:50:43;99658.00;;;20.22;100.00
23996;BME280;12207;50.076;8.848;2022-08-19T03:53:10;99651.94;;;20.14;100.00
23996;BME280;12207;50.076;8.848;2022-08-19T03:55:40;99657.13;;;20.13;100.00
23996;BME280;12207;50.076;8.848;2022-08-19T03:58:06;99660.56;;;20.10;100.00
23996;BME280;12207;50.076;8.848;2022-08-19T04:00:33;99667.47;;;20.13;100.00
23996;BME280;12207;50.076;8.848;2022-08-19T04:03:00;99664.88;;;20.02;100.00
23996;BME280;12207;50.076;8.848;2022-08-19T04:05:27;99669.19;;;20.08;100.00
23996;BME280;12207;50.076;8.848;2022-08-19T04:07:54;99673.50;;;20.06;100.00
23996;BME280;12207;50.076;8.848;2022-08-19T04:10:24;99669.19;;;20.08;100.00
23996;BME280;12207;50.076;8.848;2022-08-19T04:12:50;99670.06;;;20.13;100.00
23996;BME280;12207;50.076;8.848;2022-08-19T04:15:17;99664.91;;;20.14;100.00
23996;BME280;12207;50.076;8.848;2022-08-19T04:17:43;99670.13;;;20.20;100.00
23996;BME280;12207;50.076;8.848;2022-08-19T04:20:10;99678.72;;;20.15;100.00
23996;BME280;12207;50.076;8.848;2022-08-19T04:22:37;99678.69;;;20.10;100.00
23996;BME280;12207;50.076;8.848;2022-08-19T04:25:03;99673.50;;;20.06;100.00
23996;BME280;12207;50.076;8.848;2022-08-19T04:27:30;99677.81;;;20.10;100.00
23996;BME280;12207;50.076;8.848;2022-08-19T04:29:57;99676.91;;;20.01;100.00
23996;BME280;12207;50.076;8.848;2022-08-19T04:32:23;99670.06;;;20.05;100.00
23996;BME280;12207;50.076;8.848;2022-08-19T04:34:50;99670.94;;;20.12;100.00
23996;BME280;12207;50.076;8.848;2022-08-19T04:37:16;99671.81;;;20.15;100.00
23996;BME280;12207;50.076;8.848;2022-08-19T04:39:43;99681.31;;;20.18;100.00
23996;BME280;12207;50.076;8.848;2022-08-19T04:42:28;99684.78;;;20.17;100.00
23996;BME280;12207;50.076;8.848;2022-08-19T04:45:11;99680.50;;;20.23;100.00
23996;BME280;12207;50.076;8.848;2022-08-19T04:47:39;99675.31;;;20.23;100.00
23996;BME280;12207;50.076;8.848;2022-08-19T04:50:06;99667.53;;;20.31;100.00
23996;BME280;12207;50.076;8.848;2022-08-19T04:52:33;99670.16;;;20.33;100.00
23996;BME280;12207;50.076;8.848;2022-08-19T04:55:00;99672.78;;;20.45;100.00
23996;BME280;12207;50.076;8.848;2022-08-19T04:57:26;99671.91;;;20.46;100.00
23996;BME280;12207;50.076;8.848;2022-08-19T04:59:53;99674.56;;;20.54;100.00
23996;BME280;12207;50.076;8.848;2022-08-19T05:02:20;99676.31;;;20.70;100.00
23996;BME280;12207;50.076;8.848;2022-08-19T05:04:49;99680.63;;;20.73;100.00
23996;BME280;12207;50.076;8.848;2022-08-19T05:07:15;99682.41;;;20.83;100.00
23996;BME280;12207;50.076;8.848;2022-08-19T05:09:42;99679.78;;;20.87;100.00
23996;BME280;12207;50.076;8.848;2022-08-19T05:12:09;99678.94;;;20.96;100.00
23996;BME280;12207;50.076;8.848;2022-08-19T05:14:35;99674.63;;;21.00;100.00
23996;BME280;12207;50.076;8.848;2022-08-19T05:17:02;99681.56;;;21.01;100.00
23996;BME280;12207;50.076;8.848;2022-08-19T05:19:29;99681.53;;;21.08;100.00
23996;BME280;12207;50.076;8.848;2022-08-19T05:22:14;99698.84;;;21.17;100.00
23996;BME280;12207;50.076;8.848;2022-08-19T05:25:03;99702.31;;;21.25;100.00
23996;BME280;12207;50.076;8.848;2022-08-19T05:27:29;99692.81;;;21.30;100.00
23996;BME280;12207;50.076;8.848;2022-08-19T05:29:56;99697.13;;;21.31;100.00
23996;BME280;12207;50.076;8.848;2022-08-19T05:32:22;99699.72;;;21.33;100.00
23996;BME280;12207;50.076;8.848;2022-08-19T05:34:49;99700.59;;;21.30;100.00
23996;BME280;12207;50.076;8.848;2022-08-19T05:37:16;99709.22;;;21.29;100.00
23996;BME280;12207;50.076;8.848;2022-08-19T05:39:43;99702.31;;;21.31;100.00
23996;BME280;12207;50.076;8.848;2022-08-19T05:42:10;99707.50;;;21.34;100.00
23996;BME280;12207;50.076;8.848;2022-08-19T05:44:38;99706.63;;;21.26;100.00
23996;BME280;12207;50.076;8.848;2022-08-19T05:47:06;99702.31;;;21.25;100.00
23996;BME280;12207;50.076;8.848;2022-08-19T05:49:34;99704.03;;;21.26;100.00
23996;BME280;12207;50.076;8.848;2022-08-19T05:52:06;99701.44;;;21.26;100.00
23996;BME280;12207;50.076;8.848;2022-08-19T05:54:33;99702.31;;;21.27;100.00
23996;BME280;12207;50.076;8.848;2022-08-19T05:57:00;99712.69;;;21.25;100.00
23996;BME280;12207;50.076;8.848;2022-08-19T05:59:27;99723.09;;;21.44;100.00
23996;BME280;12207;50.076;8.848;2022-08-19T06:01:54;99719.66;;;21.40;100.00
23996;BME280;12207;50.076;8.848;2022-08-19T06:04:23;99725.72;;;21.51;100.00
23996;BME280;12207;50.076;8.848;2022-08-19T06:06:50;99732.59;;;21.65;100.00
23996;BME280;12207;50.076;8.848;2022-08-19T06:09:21;99742.13;;;21.73;100.00
23996;BME280;12207;50.076;8.848;2022-08-19T06:11:52;99741.22;;;21.88;99.99
23996;BME280;12207;50.076;8.848;2022-08-19T06:14:27;99746.38;;;22.17;97.10
23996;BME280;12207;50.076;8.848;2022-08-19T06:16:53;99743.75;;;22.26;95.97
23996;BME280;12207;50.076;8.848;2022-08-19T06:19:21;99751.53;;;22.36;94.83
23996;BME280;12207;50.076;8.848;2022-08-19T06:21:48;99755.81;;;22.52;95.38
23996;BME280;12207;50.076;8.848;2022-08-19T06:24:18;99764.38;;;22.66;94.32
23996;BME280;12207;50.076;8.848;2022-08-19T06:26:46;99764.38;;;22.66;93.76
23996;BME280;12207;50.076;8.848;2022-08-19T06:31:42;99765.28;;;22.55;93.25
23996;BME280;12207;50.076;8.848;2022-08-19T06:34:10;99765.25;;;22.68;93.54
23996;BME280;12207;50.076;8.848;2022-08-19T06:36:38;99770.47;;;22.67;92.19
23996;BME280;12207;50.076;8.848;2022-08-19T06:39:16;99774.72;;;22.85;91.94
23996;BME280;12207;50.076;8.848;2022-08-19T06:41:43;99778.22;;;22.76;92.35
23996;BME280;12207;50.076;8.848;2022-08-19T06:44:10;99777.25;;;22.94;91.11
23996;BME280;12207;50.076;8.848;2022-08-19T06:46:38;99776.41;;;22.96;89.98
23996;BME280;12207;50.076;8.848;2022-08-19T06:49:04;99772.00;;;23.06;90.34
23996;BME280;12207;50.076;8.848;2022-08-19T06:51:31;99778.88;;;23.16;88.88
23996;BME280;12207;50.076;8.848;2022-08-19T06:53:58;99781.50;;;23.10;88.76
23996;BME280;12207;50.076;8.848;2022-08-19T06:56:26;99787.53;;;23.17;88.49
23996;BME280;12207;50.076;8.848;2022-08-19T06:59:21;99792.03;;;22.95;89.67
23996;BME280;12207;50.076;8.848;2022-08-19T07:01:50;99788.53;;;22.93;90.48
23996;BME280;12207;50.076;8.848;2022-08-19T07:04:18;99786.91;;;22.72;90.93
23996;BME280;12207;50.076;8.848;2022-08-19T07:06:46;99798.09;;;22.95;89.31
23996;BME280;12207;50.076;8.848;2022-08-19T07:09:13;99800.69;;;22.97;89.68
23996;BME280;12207;50.076;8.848;2022-08-19T07:11:44;99796.34;;;22.90;90.07
23996;BME280;12207;50.076;8.848;2022-08-19T07:14:11;99797.28;;;22.80;90.49
23996;BME280;12207;50.076;8.848;2022-08-19T07:16:38;99801.53;;;23.01;90.02
23996;BME280;12207;50.076;8.848;2022-08-19T07:19:05;99805.00;;;22.98;90.41
23996;BME280;12207;50.076;8.848;2022-08-19T07:21:31;99806.72;;;23.02;89.60
23996;BME280;12207;50.076;8.848;2022-08-19T07:23:58;99809.31;;;23.08;90.49
23996;BME280;12207;50.076;8.848;2022-08-19T07:26:26;99810.06;;;23.24;89.09
23996;BME280;12207;50.076;8.848;2022-08-19T07:28:53;99800.69;;;22.97;89.34
23996;BME280;12207;50.076;8.848;2022-08-19T07:31:22;99799.59;;;23.32;87.86
23996;BME280;12207;50.076;8.848;2022-08-19T07:33:49;99796.13;;;23.31;87.69
23996;BME280;12207;50.076;8.848;2022-08-19T07:36:18;99803.00;;;23.45;86.00
23996;BME280;12207;50.076;8.848;2022-08-19T07:38:46;99812.41;;;23.61;86.95
23996;BME280;12207;50.076;8.848;2022-08-19T07:41:15;99804.59;;;23.62;84.82
23996;BME280;12207;50.076;8.848;2022-08-19T07:43:42;99803.72;;;23.60;85.71
23996;BME280;12207;50.076;8.848;2022-08-19T07:46:10;99799.31;;;23.70;84.74
23996;BME280;12207;50.076;8.848;2022-08-19T07:48:39;99802.50;;;24.04;82.93
23996;BME280;12207;50.076;8.848;2022-08-19T07:51:06;99808.44;;;24.19;83.52
23996;BME280;12207;50.076;8.848;2022-08-19T07:53:34;99803.72;;;24.53;80.84
23996;BME280;12207;50.076;8.848;2022-08-19T07:56:01;99805.19;;;24.75;80.18
23996;BME280;12207;50.076;8.848;2022-08-19T07:58:32;99818.59;;;25.16;77.93
23996;BME280;12207;50.076;8.848;2022-08-19T08:00:59;99812.00;;;24.86;77.85
23996;BME280;12207;50.076;8.848;2022-08-19T08:03:26;99811.69;;;24.36;78.71
23996;BME280;12207;50.076;8.848;2022-08-19T08:06:28;99812.59;;;24.35;79.64
23996;BME280;12207;50.076;8.848;2022-08-19T08:09:15;99816.72;;;24.56;78.79
23996;BME280;12207;50.076;8.848;2022-08-19T08:11:48;99815.75;;;24.66;78.40
23996;BME280;12207;50.076;8.848;2022-08-19T08:14:20;99814.50;;;24.96;76.91
23996;BME280;12207;50.076;8.848;2022-08-19T08:16:48;99814.56;;;25.52;74.21
23996;BME280;12207;50.076;8.848;2022-08-19T08:19:16;99808.19;;;25.67;73.53
23996;BME280;12207;50.076;8.848;2022-08-19T08:21:43;99809.81;;;26.25;71.09
23996;BME280;12207;50.076;8.848;2022-08-19T08:24:10;99809.88;;;26.24;69.41
23996;BME280;12207;50.076;8.848;2022-08-19T08:26:38;99807.44;;;26.13;70.52
23996;BME280;12207;50.076;8.848;2022-08-19T08:29:04;99814.59;;;26.51;69.37
23996;BME280;12207;50.076;8.848;2022-08-19T08:31:31;99809.47;;;26.44;68.58
23996;BME280;12207;50.076;8.848;2022-08-19T08:33:58;99814.56;;;26.05;70.71
23996;BME280;12207;50.076;8.848;2022-08-19T08:36:25;99815.31;;;26.11;70.91
23996;BME280;12207;50.076;8.848;2022-08-19T08:38:51;99800.81;;;26.40;69.09
23996;BME280;12207;50.076;8.848;2022-08-19T08:41:35;99806.50;;;26.62;67.87
23996;BME280;12207;50.076;8.848;2022-08-19T08:44:03;99804.88;;;26.10;66.17
23996;BME280;12207;50.076;8.848;2022-08-19T08:46:34;99806.25;;;25.83;66.43
23996;BME280;12207;50.076;8.848;2022-08-19T08:49:06;99815.22;;;26.18;66.58
23996;BME280;12207;50.076;8.848;2022-08-19T08:51:42;99814.00;;;26.79;63.28
23996;BME280;12207;50.076;8.848;2022-08-19T08:54:12;99809.34;;;26.51;64.16
23996;BME280;12207;50.076;8.848;2022-08-19T08:56:39;99803.28;;;26.48;63.56
23996;BME280;12207;50.076;8.848;2022-08-19T08:59:23;99808.09;;;26.24;64.64
23996;BME280;12207;50.076;8.848;2022-08-19T09:01:51;99804.16;;;27.66;61.54
23996;BME280;12207;50.076;8.848;2022-08-19T09:04:18;99798.72;;;27.38;60.32
23996;BME280;12207;50.076;8.848;2022-08-19T09:06:55;99797.00;;;27.37;60.35
23996;BME280;12207;50.076;8.848;2022-08-19T09:09:34;99797.09;;;28.68;58.31
23996;BME280;12207;50.076;8.848;2022-08-19T09:12:05;99793.03;;;28.56;57.36
23996;BME280;12207;50.076;8.848;2022-08-19T09:14:38;99798.75;;;28.08;57.53
23996;BME280;12207;50.076;8.848;2022-08-19T09:17:10;99805.00;;;28.35;57.00
23996;BME280;12207;50.076;8.848;2022-08-19T09:19:58;99792.41;;;27.83;58.37
23996;BME280;12207;50.076;8.848;2022-08-19T09:22:31;99795.53;;;28.28;57.55
23996;BME280;12207;50.076;8.848;2022-08-19T09:24:57;99802.97;;;28.47;56.86
23996;BME280;12207;50.076;8.848;2022-08-19T09:27:24;99803.91;;;28.11;57.71
23996;BME280;12207;50.076;8.848;2022-08-19T09:29:52;99810.59;;;27.89;57.97
23996;BME280;12207;50.076;8.848;2022-08-19T09:32:20;99799.66;;;27.71;58.92
23996;BME280;12207;50.076;8.848;2022-08-19T09:34:47;99800.94;;;27.18;60.40
23996;BME280;12207;50.076;8.848;2022-08-19T09:37:14;99801.03;;;27.15;61.04
23996;BME280;12207;50.076;8.848;2022-08-19T09:39:40;99788.09;;;27.44;60.73
23996;BME280;12207;50.076;8.848;2022-08-19T09:42:07;99796.72;;;27.49;59.43
23996;BME280;12207;50.076;8.848;2022-08-19T09:44:38;99785.88;;;27.63;59.71
23996;BME280;12207;50.076;8.848;2022-08-19T09:47:05;99783.84;;;27.75;58.94
23996;BME280;12207;50.076;8.848;2022-08-19T09:49:32;99789.63;;;27.89;58.57
23996;BME280;12207;50.076;8.848;2022-08-19T09:51:59;99797.31;;;27.25;60.22
23996;BME280;12207;50.076;8.848;2022-08-19T09:54:25;99789.69;;;27.86;58.03
23996;BME280;12207;50.076;8.848;2022-08-19T09:56:52;99784.16;;;28.29;57.21
23996;BME280;12207;50.076;8.848;2022-08-19T09:59:19;99787.13;;;28.50;55.88
23996;BME280;12207;50.076;8.848;2022-08-19T10:01:46;99788.16;;;27.79;57.82
23996;BME280;12207;50.076;8.848;2022-08-19T10:04:12;99789.88;;;27.80;58.71
23996;BME280;12207;50.076;8.848;2022-08-19T10:06:39;99803.28;;;27.30;59.58
23996;BME280;12207;50.076;8.848;2022-08-19T10:09:06;99801.41;;;27.37;58.96
23996;BME280;12207;50.076;8.848;2022-08-19T10:11:34;99790.25;;;28.62;55.61
23996;BME280;12207;50.076;8.848;2022-08-19T10:14:01;99781.91;;;28.78;54.02
23996;BME280;12207;50.076;8.848;2022-08-19T10:16:28;99788.53;;;29.19;53.63
23996;BME280;12207;50.076;8.848;2022-08-19T10:18:54;99782.63;;;28.53;54.42
23996;BME280;12207;50.076;8.848;2022-08-19T10:21:22;99783.09;;;28.68;55.29
23996;BME280;12207;50.076;8.848;2022-08-19T10:23:50;99785.09;;;29.17;53.77
23996;BME280;12207;50.076;8.848;2022-08-19T10:26:19;99797.31;;;28.28;55.72
23996;BME280;12207;50.076;8.848;2022-08-19T10:28:46;99791.56;;;27.81;58.68
23996;BME280;12207;50.076;8.848;2022-08-19T10:31:14;99782.03;;;27.78;59.27
23996;BME280;12207;50.076;8.848;2022-08-19T10:33:43;99781.16;;;27.42;59.79
23996;BME280;12207;50.076;8.848;2022-08-19T10:36:12;99786.53;;;27.37;59.74
23996;BME280;12207;50.076;8.848;2022-08-19T10:38:42;99784.00;;;27.33;60.45
23996;BME280;12207;50.076;8.848;2022-08-19T10:41:14;99781.00;;;27.84;57.37
23996;BME280;12207;50.076;8.848;2022-08-19T10:43:42;99775.59;;;27.90;55.89
23996;BME280;12207;50.076;8.848;2022-08-19T10:46:09;99778.66;;;27.71;57.44
23996;BME280;12207;50.076;8.848;2022-08-19T10:48:36;99778.06;;;27.96;57.36
23996;BME280;12207;50.076;8.848;2022-08-19T10:51:03;99778.16;;;28.85;54.65
23996;BME280;12207;50.076;8.848;2022-08-19T10:53:48;99770.91;;;29.23;53.59
23996;BME280;12207;50.076;8.848;2022-08-19T10:56:15;99771.06;;;29.71;51.41
23996;BME280;12207;50.076;8.848;2022-08-19T10:59:00;99754.88;;;28.74;53.39
23996;BME280;12207;50.076;8.848;2022-08-19T11:01:29;99768.22;;;28.67;54.50
23996;BME280;12207;50.076;8.848;2022-08-19T11:03:57;99762.22;;;28.01;54.77
23996;BME280;12207;50.076;8.848;2022-08-19T11:06:24;99751.78;;;27.63;55.29
23996;BME280;12207;50.076;8.848;2022-08-19T11:08:54;99746.41;;;27.69;55.24
23996;BME280;12207;50.076;8.848;2022-08-19T11:11:20;99742.09;;;27.33;55.33
23996;BME280;12207;50.076;8.848;2022-08-19T11:13:47;99739.22;;;27.43;55.37
23996;BME280;12207;50.076;8.848;2022-08-19T11:16:16;99731.06;;;27.54;55.74
23996;BME280;12207;50.076;8.848;2022-08-19T11:18:54;99716.28;;;27.86;54.84
23996;BME280;12207;50.076;8.848;2022-08-19T11:21:23;99719.44;;;28.28;54.26
23996;BME280;12207;50.076;8.848;2022-08-19T11:23:52;99724.16;;;28.48;53.71
23996;BME280;12207;50.076;8.848;2022-08-19T11:26:19;99711.25;;;29.25;50.32
23996;BME280;12207;50.076;8.848;2022-08-19T11:28:46;99716.72;;;30.20;49.61
23996;BME280;12207;50.076;8.848;2022-08-19T11:31:17;99714.91;;;30.23;47.70
23996;BME280;12207;50.076;8.848;2022-08-19T11:33:44;99731.31;;;29.54;48.20
23996;BME280;12207;50.076;8.848;2022-08-19T11:36:12;99733.88;;;29.82;47.55
23996;BME280;12207;50.076;8.848;2022-08-19T11:38:38;99721.34;;;30.14;46.79
23996;BME280;12207;50.076;8.848;2022-08-19T11:41:06;99727.78;;;29.55;47.77
23996;BME280;12207;50.076;8.848;2022-08-19T11:43:34;99716.28;;;28.48;48.60
23996;BME280;12207;50.076;8.848;2022-08-19T11:46:05;99721.22;;;28.59;48.56
23996;BME280;12207;50.076;8.848;2022-08-19T11:48:33;99718.53;;;28.00;50.25
23996;BME280;12207;50.076;8.848;2022-08-19T11:51:02;99715.38;;;29.05;48.87
23996;BME280;12207;50.076;8.848;2022-08-19T11:53:32;99712.50;;;29.66;45.87
23996;BME280;12207;50.076;8.848;2022-08-19T11:55:59;99712.22;;;29.99;45.37
23996;BME280;12207;50.076;8.848;2022-08-19T11:58:25;99706.75;;;30.05;44.09
23996;BME280;12207;50.076;8.848;2022-08-19T12:00:52;99697.84;;;30.33;44.69
23996;BME280;12207;50.076;8.848;2022-08-19T12:03:19;99702.50;;;30.48;44.06
23996;BME280;12207;50.076;8.848;2022-08-19T12:05:48;99712.16;;;30.26;45.37
23996;BME280;12207;50.076;8.848;2022-08-19T12:08:15;99705.47;;;29.40;46.96
23996;BME280;12207;50.076;8.848;2022-08-19T12:10:41;99711.41;;;28.92;47.80
23996;BME280;12207;50.076;8.848;2022-08-19T12:13:08;99704.13;;;28.74;49.09
23996;BME280;12207;50.076;8.848;2022-08-19T12:15:36;99711.50;;;28.61;49.45
23996;BME280;12207;50.076;8.848;2022-08-19T12:18:03;99701.50;;;28.74;49.03
23996;BME280;12207;50.076;8.848;2022-08-19T12:20:30;99700.00;;;29.21;48.46
23996;BME280;12207;50.076;8.848;2022-08-19T12:22:56;99695.38;;;29.28;47.90
23996;BME280;12207;50.076;8.848;2022-08-19T12:25:23;99699.31;;;30.16;46.34
23996;BME280;12207;50.076;8.848;2022-08-19T12:27:49;99687.47;;;30.05;46.13
23996;BME280;12207;50.076;8.848;2022-08-19T12:30:16;99690.00;;;29.83;47.15
23996;BME280;12207;50.076;8.848;2022-08-19T12:32:42;99692.38;;;29.90;47.02
23996;BME280;12207;50.076;8.848;2022-08-19T12:35:09;99688.72;;;28.90;49.35
23996;BME280;12207;50.076;8.848;2022-08-19T12:37:38;99686.66;;;28.99;50.51
23996;BME280;12207;50.076;8.848;2022-08-19T12:40:04;99691.13;;;28.69;49.63
23996;BME280;12207;50.076;8.848;2022-08-19T12:42:31;99688.50;;;28.69;50.48
23996;BME280;12207;50.076;8.848;2022-08-19T12:44:58;99684.31;;;28.90;48.66
23996;BME280;12207;50.076;8.848;2022-08-19T12:47:24;99694.00;;;29.43;47.73
23996;BME280;12207;50.076;8.848;2022-08-19T12:49:52;99688.28;;;29.82;47.13
23996;BME280;12207;50.076;8.848;2022-08-19T12:52:19;99692.13;;;29.96;45.88
23996;BME280;12207;50.076;8.848;2022-08-19T12:54:47;99680.38;;;30.30;45.53
23996;BME280;12207;50.076;8.848;2022-08-19T12:57:13;99672.88;;;30.43;43.90
23996;BME280;12207;50.076;8.848;2022-08-19T12:59:41;99677.38;;;30.16;44.43
23996;BME280;12207;50.076;8.848;2022-08-19T13:02:07;99688.09;;;30.11;44.38
23996;BME280;12207;50.076;8.848;2022-08-19T13:04:34;99677.16;;;30.22;43.12
23996;BME280;12207;50.076;8.848;2022-08-19T13:07:03;99682.88;;;30.10;42.74
23996;BME280;12207;50.076;8.848;2022-08-19T13:09:30;99670.47;;;29.65;43.39